sensor_id;sensor_type;location;lat;lon;timestamp;P1;durP1;ratioP1;P2;durP2;ratioP2
7759;SDS011;3924;48.830;9.262;2022-10-31T00:01:13;10.00;;;5.40;;
7759;SDS011;3924;48.830;9.262;2022-10-31T00:03:41;8.33;;;5.73;;
7759;SDS011;3924;48.830;9.262;2022-10-31T00:06:08;6.03;;;4.80;;
7759;SDS011;3924;48.830;9.262;2022-10-31T00:08:34;9.20;;;5.10;;
7759;SDS011;3924;48.830;9.262;2022-10-31T00:11:01;7.00;;;5.07;;
7759;SDS011;3924;48.830;9.262;2022-10-31T00:13:28;6.03;;;5.43;;
7759;SDS011;3924;48.830;9.262;2022-10-31T00:15:54;7.47;;;5.17;;
7759;SDS011;3924;48.830;9.262;2022-10-31T00:18:20;5.93;;;4.40;;
7759;SDS011;3924;48.830;9.262;2022-10-31T00:20:47;6.83;;;4.73;;
7759;SDS011;3924;48.830;9.262;2022-10-31T00:23:13;6.63;;;4.47;;
7759;SDS011;3924;48.830;9.262;2022-10-31T00:25:40;8.30;;;4.27;;
7759;SDS011;3924;48.830;9.262;2022-10-31T00:28:07;5.93;;;3.90;;
7759;SDS011;3924;48.830;9.262;2022-10-31T00:30:36;13.37;;;4.27;;
7759;SDS011;3924;48.830;9.262;2022-10-31T00:33:03;11.30;;;4.50;;
7759;SDS011;3924;48.830;9.262;2022-10-31T00:35:31;8.00;;;4.30;;
7759;SDS011;3924;48.830;9.262;2022-10-31T00:37:58;7.07;;;4.43;;
7759;SDS011;3924;48.830;9.262;2022-10-31T00:40:24;8.70;;;4.70;;
7759;SDS011;3924;48.830;9.262;2022-10-31T00:42:51;7.53;;;4.40;;
7759;SDS011;3924;48.830;9.262;2022-10-31T00:45:18;6.70;;;3.97;;
7759;SDS011;3924;48.830;9.262;2022-10-31T00:47:44;6.07;;;3.90;;
7759;SDS011;3924;48.830;9.262;2022-10-31T00:50:11;9.37;;;4.63;;
7759;SDS011;3924;48.830;9.262;2022-10-31T00:52:37;10.57;;;4.50;;
7759;SDS011;3924;48.830;9.262;2022-10-31T00:55:04;8.33;;;4.40;;
7759;SDS011;3924;48.830;9.262;2022-10-31T00:57:30;6.13;;;3.93;;
7759;SDS011;3924;48.830;9.262;2022-10-31T00:59:57;6.20;;;3.90;;
7759;SDS011;3924;48.830;9.262;2022-10-31T01:02:23;6.67;;;3.70;;
7759;SDS011;3924;48.830;9.262;2022-10-31T01:04:50;7.70;;;4.00;;
7759;SDS011;3924;48.830;9.262;2022-10-31T01:07:16;8.73;;;4.00;;
7759;SDS011;3924;48.830;9.262;2022-10-31T01:09:42;8.83;;;4.33;;
7759;SDS011;3924;48.830;9.262;2022-10-31T01:12:09;9.43;;;3.77;;
7759;SDS011;3924;48.830;9.262;2022-10-31T01:14:35;8.47;;;3.80;;
7759;SDS011;3924;48.830;9.262;2022-10-31T01:17:02;4.87;;;3.57;;
7759;SDS011;3924;48.830;9.262;2022-10-31T01:19:28;7.87;;;3.80;;
7759;SDS011;3924;48.830;9.262;2022-10-31T01:21:55;7.30;;;3.57;;
7759;SDS011;3924;48.830;9.262;2022-10-31T01:24:21;5.10;;;4.60;;
7759;SDS011;3924;48.830;9.262;2022-10-31T01:26:48;5.00;;;3.80;;
7759;SDS011;3924;48.830;9.262;2022-10-31T01:29:14;10.80;;;3.83;;
7759;SDS011;3924;48.830;9.262;2022-10-31T01:31:40;9.93;;;3.77;;
7759;SDS011;3924;48.830;9.262;2022-10-31T01:34:07;7.63;;;3.47;;
7759;SDS011;3924;48.830;9.262;2022-10-31T01:36:39;6.40;;;3.40;;
7759;SDS011;3924;48.830;9.262;2022-10-31T01:39:10;6.10;;;3.70;;
7759;SDS011;3924;48.830;9.262;2022-10-31T01:41:39;6.40;;;3.43;;
7759;SDS011;3924;48.830;9.262;2022-10-31T01:47:04;5.30;;;3.37;;
7759;SDS011;3924;48.830;9.262;2022-10-31T01:49:35;7.10;;;3.77;;
7759;SDS011;3924;48.830;9.262;2022-10-31T01:52:07;9.07;;;3.77;;
7759;SDS011;3924;48.830;9.262;2022-10-31T01:54:55;9.23;;;3.73;;
7759;SDS011;3924;48.830;9.262;2022-10-31T01:57:26;4.97;;;3.53;;
7759;SDS011;3924;48.830;9.262;2022-10-31T01:59:54;5.37;;;3.43;;
7759;SDS011;3924;48.830;9.262;2022-10-31T02:02:23;9.27;;;3.33;;
7759;SDS011;3924;48.830;9.262;2022-10-31T02:04:51;6.97;;;3.20;;
7759;SDS011;3924;48.830;9.262;2022-10-31T02:07:42;5.63;;;3.53;;
7759;SDS011;3924;48.830;9.262;2022-10-31T02:10:09;13.83;;;4.07;;
7759;SDS011;3924;48.830;9.262;2022-10-31T02:12:36;4.77;;;4.13;;
7759;SDS011;3924;48.830;9.262;2022-10-31T02:15:03;5.20;;;3.50;;
7759;SDS011;3924;48.830;9.262;2022-10-31T02:17:31;5.93;;;4.03;;
7759;SDS011;3924;48.830;9.262;2022-10-31T02:20:03;4.83;;;3.80;;
7759;SDS011;3924;48.830;9.262;2022-10-31T02:31:01;7.23;;;3.53;;
7759;SDS011;3924;48.830;9.262;2022-10-31T02:33:58;5.27;;;3.53;;
7759;SDS011;3924;48.830;9.262;2022-10-31T02:36:38;6.80;;;3.53;;
7759;SDS011;3924;48.830;9.262;2022-10-31T02:39:16;4.63;;;3.10;;
7759;SDS011;3924;48.830;9.262;2022-10-31T02:41:53;3.73;;;3.10;;
7759;SDS011;3924;48.830;9.262;2022-10-31T02:44:45;7.37;;;3.20;;
7759;SDS011;3924;48.830;9.262;2022-10-31T02:47:30;7.43;;;3.30;;
7759;SDS011;3924;48.830;9.262;2022-10-31T02:50:03;5.97;;;3.47;;
7759;SDS011;3924;48.830;9.262;2022-10-31T02:52:32;4.80;;;3.53;;
7759;SDS011;3924;48.830;9.262;2022-10-31T02:58:04;4.03;;;3.20;;
7759;SDS011;3924;48.830;9.262;2022-10-31T03:00:41;7.07;;;3.63;;
7759;SDS011;3924;48.830;9.262;2022-10-31T03:03:43;7.30;;;3.77;;
7759;SDS011;3924;48.830;9.262;2022-10-31T03:11:56;5.93;;;3.50;;
7759;SDS011;3924;48.830;9.262;2022-10-31T03:14:33;5.57;;;3.40;;
7759;SDS011;3924;48.830;9.262;2022-10-31T03:17:07;6.27;;;3.17;;
7759;SDS011;3924;48.830;9.262;2022-10-31T03:19:41;4.63;;;3.03;;
7759;SDS011;3924;48.830;9.262;2022-10-31T03:22:19;8.40;;;3.90;;
7759;SDS011;3924;48.830;9.262;2022-10-31T03:24:48;8.07;;;3.47;;
7759;SDS011;3924;48.830;9.262;2022-10-31T03:27:19;7.20;;;3.53;;
7759;SDS011;3924;48.830;9.262;2022-10-31T03:29:57;6.90;;;3.60;;
7759;SDS011;3924;48.830;9.262;2022-10-31T03:32:29;5.80;;;3.27;;
7759;SDS011;3924;48.830;9.262;2022-10-31T03:35:00;5.97;;;3.00;;
7759;SDS011;3924;48.830;9.262;2022-10-31T03:37:30;4.77;;;3.00;;
7759;SDS011;3924;48.830;9.262;2022-10-31T03:40:00;5.50;;;3.10;;
7759;SDS011;3924;48.830;9.262;2022-10-31T03:42:30;8.87;;;3.33;;
7759;SDS011;3924;48.830;9.262;2022-10-31T03:47:38;7.37;;;2.67;;
7759;SDS011;3924;48.830;9.262;2022-10-31T03:50:05;3.97;;;2.80;;
7759;SDS011;3924;48.830;9.262;2022-10-31T03:52:35;3.53;;;2.60;;
7759;SDS011;3924;48.830;9.262;2022-10-31T03:55:09;3.43;;;2.97;;
7759;SDS011;3924;48.830;9.262;2022-10-31T03:57:53;10.03;;;3.30;;
7759;SDS011;3924;48.830;9.262;2022-10-31T04:00:42;6.67;;;3.10;;
7759;SDS011;3924;48.830;9.262;2022-10-31T04:03:14;5.13;;;3.13;;
7759;SDS011;3924;48.830;9.262;2022-10-31T04:05:43;3.23;;;3.00;;
7759;SDS011;3924;48.830;9.262;2022-10-31T04:08:15;7.20;;;3.30;;
7759;SDS011;3924;48.830;9.262;2022-10-31T04:10:47;6.00;;;3.40;;
7759;SDS011;3924;48.830;9.262;2022-10-31T04:13:17;2.80;;;2.60;;
7759;SDS011;3924;48.830;9.262;2022-10-31T04:15:49;8.63;;;2.90;;
7759;SDS011;3924;48.830;9.262;2022-10-31T04:18:18;4.80;;;3.00;;
7759;SDS011;3924;48.830;9.262;2022-10-31T04:20:44;7.53;;;3.20;;
7759;SDS011;3924;48.830;9.262;2022-10-31T04:23:24;3.07;;;2.80;;
7759;SDS011;3924;48.830;9.262;2022-10-31T04:25:53;10.03;;;2.90;;
7759;SDS011;3924;48.830;9.262;2022-10-31T04:28:19;6.13;;;3.23;;
7759;SDS011;3924;48.830;9.262;2022-10-31T04:30:46;5.17;;;3.40;;
7759;SDS011;3924;48.830;9.262;2022-10-31T04:33:12;3.77;;;3.37;;
7759;SDS011;3924;48.830;9.262;2022-10-31T04:35:39;5.67;;;3.07;;
7759;SDS011;3924;48.830;9.262;2022-10-31T04:38:06;5.90;;;3.57;;
7759;SDS011;3924;48.830;9.262;2022-10-31T04:40:32;5.83;;;3.43;;
7759;SDS011;3924;48.830;9.262;2022-10-31T04:42:58;5.60;;;2.53;;
7759;SDS011;3924;48.830;9.262;2022-10-31T04:45:25;7.57;;;3.00;;
7759;SDS011;3924;48.830;9.262;2022-10-31T04:47:52;4.97;;;3.20;;
7759;SDS011;3924;48.830;9.262;2022-10-31T04:50:18;4.23;;;2.80;;
7759;SDS011;3924;48.830;9.262;2022-10-31T04:52:45;4.47;;;2.90;;
7759;SDS011;3924;48.830;9.262;2022-10-31T04:55:12;7.17;;;3.20;;
7759;SDS011;3924;48.830;9.262;2022-10-31T04:57:40;4.40;;;2.80;;
7759;SDS011;3924;48.830;9.262;2022-10-31T05:00:08;7.20;;;3.03;;
7759;SDS011;3924;48.830;9.262;2022-10-31T05:02:46;7.10;;;2.70;;
7759;SDS011;3924;48.830;9.262;2022-10-31T05:05:13;11.17;;;2.97;;
7759;SDS011;3924;48.830;9.262;2022-10-31T05:07:41;2.83;;;2.57;;
7759;SDS011;3924;48.830;9.262;2022-10-31T05:10:10;9.83;;;2.93;;
7759;SDS011;3924;48.830;9.262;2022-10-31T05:12:44;3.00;;;2.37;;
7759;SDS011;3924;48.830;9.262;2022-10-31T05:15:12;7.20;;;3.30;;
7759;SDS011;3924;48.830;9.262;2022-10-31T05:17:39;9.73;;;2.73;;
7759;SDS011;3924;48.830;9.262;2022-10-31T05:20:06;7.77;;;3.07;;
7759;SDS011;3924;48.830;9.262;2022-10-31T05:22:33;7.30;;;5.10;;
7759;SDS011;3924;48.830;9.262;2022-10-31T05:24:59;4.27;;;3.87;;
7759;SDS011;3924;48.830;9.262;2022-10-31T05:27:26;4.07;;;3.00;;
7759;SDS011;3924;48.830;9.262;2022-10-31T05:29:52;5.03;;;2.73;;
7759;SDS011;3924;48.830;9.262;2022-10-31T05:32:19;2.80;;;2.53;;
7759;SDS011;3924;48.830;9.262;2022-10-31T05:34:45;4.13;;;2.67;;
7759;SDS011;3924;48.830;9.262;2022-10-31T05:37:12;8.00;;;3.10;;
7759;SDS011;3924;48.830;9.262;2022-10-31T05:39:38;4.83;;;2.93;;
7759;SDS011;3924;48.830;9.262;2022-10-31T05:42:04;4.20;;;2.93;;
7759;SDS011;3924;48.830;9.262;2022-10-31T05:44:31;4.40;;;3.17;;
7759;SDS011;3924;48.830;9.262;2022-10-31T05:46:57;5.77;;;3.13;;
7759;SDS011;3924;48.830;9.262;2022-10-31T05:49:24;3.73;;;2.57;;
7759;SDS011;3924;48.830;9.262;2022-10-31T05:51:51;4.93;;;2.83;;
7759;SDS011;3924;48.830;9.262;2022-10-31T05:54:17;5.87;;;3.60;;
7759;SDS011;3924;48.830;9.262;2022-10-31T05:56:44;5.07;;;2.77;;
7759;SDS011;3924;48.830;9.262;2022-10-31T05:59:10;4.37;;;3.20;;
7759;SDS011;3924;48.830;9.262;2022-10-31T06:01:37;3.73;;;2.90;;
7759;SDS011;3924;48.830;9.262;2022-10-31T06:04:03;6.23;;;3.43;;
7759;SDS011;3924;48.830;9.262;2022-10-31T06:06:30;4.93;;;2.67;;
7759;SDS011;3924;48.830;9.262;2022-10-31T06:08:56;3.93;;;2.90;;
7759;SDS011;3924;48.830;9.262;2022-10-31T06:11:23;6.80;;;4.27;;
7759;SDS011;3924;48.830;9.262;2022-10-31T06:13:49;4.23;;;2.80;;
7759;SDS011;3924;48.830;9.262;2022-10-31T06:16:16;3.57;;;2.90;;
7759;SDS011;3924;48.830;9.262;2022-10-31T06:18:42;7.70;;;3.30;;
7759;SDS011;3924;48.830;9.262;2022-10-31T06:21:08;4.30;;;3.17;;
7759;SDS011;3924;48.830;9.262;2022-10-31T06:23:40;6.50;;;3.10;;
7759;SDS011;3924;48.830;9.262;2022-10-31T06:26:06;4.13;;;3.03;;
7759;SDS011;3924;48.830;9.262;2022-10-31T06:28:32;11.30;;;3.53;;
7759;SDS011;3924;48.830;9.262;2022-10-31T06:30:59;8.77;;;3.00;;
7759;SDS011;3924;48.830;9.262;2022-10-31T06:33:25;5.60;;;3.30;;
7759;SDS011;3924;48.830;9.262;2022-10-31T06:35:52;6.90;;;3.07;;
7759;SDS011;3924;48.830;9.262;2022-10-31T06:38:18;8.33;;;2.73;;
7759;SDS011;3924;48.830;9.262;2022-10-31T06:40:44;5.27;;;3.40;;
7759;SDS011;3924;48.830;9.262;2022-10-31T06:43:11;7.30;;;3.70;;
7759;SDS011;3924;48.830;9.262;2022-10-31T06:45:37;5.80;;;3.10;;
7759;SDS011;3924;48.830;9.262;2022-10-31T06:48:04;6.07;;;3.17;;
7759;SDS011;3924;48.830;9.262;2022-10-31T06:50:47;13.43;;;3.20;;
7759;SDS011;3924;48.830;9.262;2022-10-31T06:53:13;5.47;;;3.20;;
7759;SDS011;3924;48.830;9.262;2022-10-31T06:55:40;6.07;;;3.23;;
7759;SDS011;3924;48.830;9.262;2022-10-31T06:58:08;10.37;;;3.50;;
7759;SDS011;3924;48.830;9.262;2022-10-31T07:00:36;6.63;;;3.33;;
7759;SDS011;3924;48.830;9.262;2022-10-31T07:03:04;7.37;;;3.40;;
7759;SDS011;3924;48.830;9.262;2022-10-31T07:05:32;7.23;;;3.53;;
7759;SDS011;3924;48.830;9.262;2022-10-31T07:08:02;4.27;;;3.20;;
7759;SDS011;3924;48.830;9.262;2022-10-31T07:10:30;11.47;;;3.53;;
7759;SDS011;3924;48.830;9.262;2022-10-31T07:13:08;5.83;;;3.33;;
7759;SDS011;3924;48.830;9.262;2022-10-31T07:15:37;4.37;;;3.27;;
7759;SDS011;3924;48.830;9.262;2022-10-31T07:18:05;9.30;;;3.30;;
7759;SDS011;3924;48.830;9.262;2022-10-31T07:20:34;8.13;;;4.10;;
7759;SDS011;3924;48.830;9.262;2022-10-31T07:23:01;5.27;;;3.50;;
7759;SDS011;3924;48.830;9.262;2022-10-31T07:25:30;9.50;;;3.60;;
7759;SDS011;3924;48.830;9.262;2022-10-31T07:27:57;9.47;;;3.70;;
7759;SDS011;3924;48.830;9.262;2022-10-31T07:30:25;9.47;;;3.70;;
7759;SDS011;3924;48.830;9.262;2022-10-31T07:32:51;6.80;;;4.00;;
7759;SDS011;3924;48.830;9.262;2022-10-31T07:35:19;7.97;;;3.70;;
7759;SDS011;3924;48.830;9.262;2022-10-31T07:37:47;6.90;;;4.07;;
7759;SDS011;3924;48.830;9.262;2022-10-31T07:40:14;9.40;;;4.20;;
7759;SDS011;3924;48.830;9.262;2022-10-31T07:42:42;6.23;;;3.90;;
7759;SDS011;3924;48.830;9.262;2022-10-31T07:45:11;7.97;;;3.70;;
7759;SDS011;3924;48.830;9.262;2022-10-31T07:50:12;4.73;;;3.43;;
7759;SDS011;3924;48.830;9.262;2022-10-31T07:52:40;6.83;;;4.30;;
7759;SDS011;3924;48.830;9.262;2022-10-31T07:55:07;10.67;;;4.83;;
7759;SDS011;3924;48.830;9.262;2022-10-31T07:57:34;7.03;;;4.40;;
7759;SDS011;3924;48.830;9.262;2022-10-31T08:00:03;7.43;;;4.20;;
7759;SDS011;3924;48.830;9.262;2022-10-31T08:02:30;5.03;;;3.90;;
7759;SDS011;3924;48.830;9.262;2022-10-31T08:04:57;4.60;;;3.60;;
7759;SDS011;3924;48.830;9.262;2022-10-31T08:07:26;5.93;;;3.60;;
7759;SDS011;3924;48.830;9.262;2022-10-31T08:09:55;7.80;;;4.17;;
7759;SDS011;3924;48.830;9.262;2022-10-31T08:12:22;6.67;;;4.00;;
7759;SDS011;3924;48.830;9.262;2022-10-31T08:15:12;7.67;;;4.13;;
7759;SDS011;3924;48.830;9.262;2022-10-31T08:17:39;11.17;;;4.80;;
7759;SDS011;3924;48.830;9.262;2022-10-31T08:20:06;7.53;;;4.33;;
7759;SDS011;3924;48.830;9.262;2022-10-31T08:22:33;5.73;;;4.20;;
7759;SDS011;3924;48.830;9.262;2022-10-31T08:25:06;5.63;;;4.03;;
7759;SDS011;3924;48.830;9.262;2022-10-31T08:27:33;14.90;;;4.67;;
7759;SDS011;3924;48.830;9.262;2022-10-31T08:30:00;5.03;;;3.90;;
7759;SDS011;3924;48.830;9.262;2022-10-31T08:32:27;9.00;;;4.87;;
7759;SDS011;3924;48.830;9.262;2022-10-31T08:34:53;8.60;;;5.90;;
7759;SDS011;3924;48.830;9.262;2022-10-31T08:37:20;5.00;;;4.23;;
7759;SDS011;3924;48.830;9.262;2022-10-31T08:39:46;6.90;;;3.37;;
7759;SDS011;3924;48.830;9.262;2022-10-31T08:42:15;6.67;;;3.50;;
7759;SDS011;3924;48.830;9.262;2022-10-31T08:44:41;7.37;;;3.37;;
7759;SDS011;3924;48.830;9.262;2022-10-31T08:47:08;6.77;;;3.13;;
7759;SDS011;3924;48.830;9.262;2022-10-31T08:49:34;10.27;;;3.97;;
7759;SDS011;3924;48.830;9.262;2022-10-31T08:52:00;6.60;;;3.87;;
7759;SDS011;3924;48.830;9.262;2022-10-31T08:54:28;14.13;;;4.50;;
7759;SDS011;3924;48.830;9.262;2022-10-31T08:56:55;5.97;;;3.50;;
7759;SDS011;3924;48.830;9.262;2022-10-31T08:59:21;7.63;;;4.20;;
7759;SDS011;3924;48.830;9.262;2022-10-31T09:01:48;10.43;;;3.93;;
7759;SDS011;3924;48.830;9.262;2022-10-31T09:04:14;8.90;;;3.90;;
7759;SDS011;3924;48.830;9.262;2022-10-31T09:06:41;11.30;;;4.27;;
7759;SDS011;3924;48.830;9.262;2022-10-31T09:09:20;8.20;;;4.17;;
7759;SDS011;3924;48.830;9.262;2022-10-31T09:11:47;5.47;;;3.30;;
7759;SDS011;3924;48.830;9.262;2022-10-31T09:14:13;8.70;;;4.30;;
7759;SDS011;3924;48.830;9.262;2022-10-31T09:16:39;10.33;;;3.97;;
7759;SDS011;3924;48.830;9.262;2022-10-31T09:19:06;7.60;;;3.97;;
7759;SDS011;3924;48.830;9.262;2022-10-31T09:21:37;6.07;;;3.90;;
7759;SDS011;3924;48.830;9.262;2022-10-31T09:24:03;4.57;;;3.87;;
7759;SDS011;3924;48.830;9.262;2022-10-31T09:26:30;7.37;;;4.00;;
7759;SDS011;3924;48.830;9.262;2022-10-31T09:28:56;11.77;;;3.73;;
7759;SDS011;3924;48.830;9.262;2022-10-31T09:31:24;6.93;;;3.90;;
7759;SDS011;3924;48.830;9.262;2022-10-31T09:33:52;10.03;;;4.10;;
7759;SDS011;3924;48.830;9.262;2022-10-31T09:36:19;5.27;;;4.40;;
7759;SDS011;3924;48.830;9.262;2022-10-31T09:38:46;9.73;;;3.93;;
7759;SDS011;3924;48.830;9.262;2022-10-31T09:41:24;8.20;;;3.37;;
7759;SDS011;3924;48.830;9.262;2022-10-31T09:46:55;7.57;;;4.87;;
7759;SDS011;3924;48.830;9.262;2022-10-31T09:49:45;7.30;;;4.33;;
7759;SDS011;3924;48.830;9.262;2022-10-31T09:52:28;11.77;;;4.63;;
7759;SDS011;3924;48.830;9.262;2022-10-31T09:57:58;17.60;;;4.63;;
7759;SDS011;3924;48.830;9.262;2022-10-31T10:00:27;7.77;;;4.87;;
7759;SDS011;3924;48.830;9.262;2022-10-31T10:06:20;12.07;;;4.87;;
7759;SDS011;3924;48.830;9.262;2022-10-31T10:08:50;10.17;;;5.10;;
7759;SDS011;3924;48.830;9.262;2022-10-31T10:36:39;11.27;;;5.60;;
7759;SDS011;3924;48.830;9.262;2022-10-31T10:39:14;10.23;;;6.07;;
7759;SDS011;3924;48.830;9.262;2022-10-31T10:41:48;10.27;;;6.37;;
7759;SDS011;3924;48.830;9.262;2022-10-31T10:44:43;10.90;;;6.40;;
7759;SDS011;3924;48.830;9.262;2022-10-31T10:47:35;10.47;;;5.77;;
7759;SDS011;3924;48.830;9.262;2022-10-31T10:50:19;9.33;;;6.57;;
7759;SDS011;3924;48.830;9.262;2022-10-31T10:56:12;11.50;;;7.43;;
7759;SDS011;3924;48.830;9.262;2022-10-31T10:59:13;12.13;;;7.13;;
7759;SDS011;3924;48.830;9.262;2022-10-31T11:01:44;13.70;;;6.77;;
7759;SDS011;3924;48.830;9.262;2022-10-31T11:04:21;15.10;;;7.30;;
7759;SDS011;3924;48.830;9.262;2022-10-31T11:07:03;12.60;;;6.23;;
7759;SDS011;3924;48.830;9.262;2022-10-31T11:09:32;9.93;;;6.53;;
7759;SDS011;3924;48.830;9.262;2022-10-31T11:12:11;9.70;;;6.40;;
7759;SDS011;3924;48.830;9.262;2022-10-31T11:14:52;14.90;;;7.67;;
7759;SDS011;3924;48.830;9.262;2022-10-31T11:17:47;10.67;;;7.23;;
7759;SDS011;3924;48.830;9.262;2022-10-31T11:22:45;10.87;;;6.73;;
7759;SDS011;3924;48.830;9.262;2022-10-31T11:28:00;8.57;;;5.90;;
7759;SDS011;3924;48.830;9.262;2022-10-31T11:30:31;8.57;;;5.73;;
7759;SDS011;3924;48.830;9.262;2022-10-31T11:35:59;10.70;;;5.90;;
7759;SDS011;3924;48.830;9.262;2022-10-31T11:38:39;12.13;;;5.20;;
7759;SDS011;3924;48.830;9.262;2022-10-31T11:43:49;6.23;;;4.60;;
7759;SDS011;3924;48.830;9.262;2022-10-31T11:46:32;8.83;;;5.10;;
7759;SDS011;3924;48.830;9.262;2022-10-31T11:49:02;6.10;;;4.80;;
7759;SDS011;3924;48.830;9.262;2022-10-31T11:51:34;8.07;;;4.80;;
7759;SDS011;3924;48.830;9.262;2022-10-31T11:54:05;8.10;;;5.17;;
7759;SDS011;3924;48.830;9.262;2022-10-31T11:56:45;9.20;;;5.03;;
7759;SDS011;3924;48.830;9.262;2022-10-31T11:59:20;8.83;;;5.10;;
7759;SDS011;3924;48.830;9.262;2022-10-31T12:01:51;10.87;;;5.13;;
7759;SDS011;3924;48.830;9.262;2022-10-31T12:04:31;11.97;;;5.60;;
7759;SDS011;3924;48.830;9.262;2022-10-31T12:07:04;8.47;;;5.07;;
7759;SDS011;3924;48.830;9.262;2022-10-31T12:09:35;11.97;;;4.80;;
7759;SDS011;3924;48.830;9.262;2022-10-31T12:12:16;6.37;;;4.70;;
7759;SDS011;3924;48.830;9.262;2022-10-31T12:15:03;5.67;;;4.57;;
7759;SDS011;3924;48.830;9.262;2022-10-31T12:26:18;6.70;;;4.10;;
7759;SDS011;3924;48.830;9.262;2022-10-31T12:31:56;8.40;;;4.13;;
7759;SDS011;3924;48.830;9.262;2022-10-31T12:34:59;6.17;;;4.53;;
7759;SDS011;3924;48.830;9.262;2022-10-31T12:37:41;5.60;;;4.07;;
7759;SDS011;3924;48.830;9.262;2022-10-31T12:46:03;7.13;;;4.10;;
7759;SDS011;3924;48.830;9.262;2022-10-31T12:48:42;7.37;;;4.27;;
7759;SDS011;3924;48.830;9.262;2022-10-31T12:54:22;5.03;;;3.70;;
7759;SDS011;3924;48.830;9.262;2022-10-31T12:57:35;9.33;;;4.40;;
7759;SDS011;3924;48.830;9.262;2022-10-31T13:00:31;7.07;;;4.87;;
7759;SDS011;3924;48.830;9.262;2022-10-31T13:03:23;6.33;;;4.30;;
7759;SDS011;3924;48.830;9.262;2022-10-31T13:06:03;7.17;;;4.13;;
7759;SDS011;3924;48.830;9.262;2022-10-31T13:08:49;12.83;;;3.43;;
7759;SDS011;3924;48.830;9.262;2022-10-31T13:11:32;6.53;;;4.17;;
7759;SDS011;3924;48.830;9.262;2022-10-31T13:14:12;8.00;;;3.93;;
7759;SDS011;3924;48.830;9.262;2022-10-31T13:17:50;7.20;;;4.40;;
7759;SDS011;3924;48.830;9.262;2022-10-31T13:22:54;6.83;;;4.37;;
7759;SDS011;3924;48.830;9.262;2022-10-31T13:25:53;5.50;;;3.83;;
7759;SDS011;3924;48.830;9.262;2022-10-31T13:28:36;12.13;;;4.90;;
7759;SDS011;3924;48.830;9.262;2022-10-31T13:31:19;10.17;;;4.60;;
7759;SDS011;3924;48.830;9.262;2022-10-31T13:33:59;8.10;;;5.17;;
7759;SDS011;3924;48.830;9.262;2022-10-31T13:39:34;9.30;;;5.77;;
7759;SDS011;3924;48.830;9.262;2022-10-31T13:45:19;11.23;;;5.20;;
7759;SDS011;3924;48.830;9.262;2022-10-31T13:47:56;10.80;;;5.60;;
7759;SDS011;3924;48.830;9.262;2022-10-31T13:50:31;7.10;;;5.00;;
7759;SDS011;3924;48.830;9.262;2022-10-31T13:53:09;8.23;;;4.63;;
7759;SDS011;3924;48.830;9.262;2022-10-31T13:55:46;10.37;;;4.63;;
7759;SDS011;3924;48.830;9.262;2022-10-31T13:58:40;7.17;;;4.53;;
7759;SDS011;3924;48.830;9.262;2022-10-31T14:01:23;7.80;;;4.03;;
7759;SDS011;3924;48.830;9.262;2022-10-31T14:07:24;5.67;;;4.20;;
7759;SDS011;3924;48.830;9.262;2022-10-31T14:09:38;8.13;;;3.87;;
7759;SDS011;3924;48.830;9.262;2022-10-31T14:15:20;7.03;;;4.87;;
7759;SDS011;3924;48.830;9.262;2022-10-31T14:17:59;9.93;;;4.37;;
7759;SDS011;3924;48.830;9.262;2022-10-31T14:20:42;6.27;;;4.10;;
7759;SDS011;3924;48.830;9.262;2022-10-31T14:23:33;5.43;;;4.03;;
7759;SDS011;3924;48.830;9.262;2022-10-31T14:29:02;7.70;;;4.40;;
7759;SDS011;3924;48.830;9.262;2022-10-31T14:42:59;4.27;;;3.50;;
7759;SDS011;3924;48.830;9.262;2022-10-31T14:45:56;10.53;;;5.03;;
7759;SDS011;3924;48.830;9.262;2022-10-31T14:51:55;6.20;;;4.47;;
7759;SDS011;3924;48.830;9.262;2022-10-31T14:54:27;7.27;;;3.93;;
7759;SDS011;3924;48.830;9.262;2022-10-31T14:57:07;11.87;;;3.97;;
7759;SDS011;3924;48.830;9.262;2022-10-31T14:59:42;4.90;;;4.40;;
7759;SDS011;3924;48.830;9.262;2022-10-31T15:02:19;8.33;;;4.13;;
7759;SDS011;3924;48.830;9.262;2022-10-31T15:04:51;6.93;;;4.40;;
7759;SDS011;3924;48.830;9.262;2022-10-31T15:07:22;8.23;;;4.57;;
7759;SDS011;3924;48.830;9.262;2022-10-31T15:10:04;8.17;;;4.47;;
7759;SDS011;3924;48.830;9.262;2022-10-31T15:12:41;11.00;;;4.23;;
7759;SDS011;3924;48.830;9.262;2022-10-31T15:15:11;11.47;;;4.97;;
7759;SDS011;3924;48.830;9.262;2022-10-31T15:17:44;9.00;;;4.57;;
7759;SDS011;3924;48.830;9.262;2022-10-31T15:20:22;14.77;;;5.10;;
7759;SDS011;3924;48.830;9.262;2022-10-31T15:22:53;11.47;;;5.17;;
7759;SDS011;3924;48.830;9.262;2022-10-31T15:25:23;9.10;;;4.40;;
7759;SDS011;3924;48.830;9.262;2022-10-31T15:27:52;7.30;;;4.50;;
7759;SDS011;3924;48.830;9.262;2022-10-31T15:30:23;12.00;;;5.40;;
7759;SDS011;3924;48.830;9.262;2022-10-31T15:32:51;7.53;;;5.57;;
7759;SDS011;3924;48.830;9.262;2022-10-31T15:35:31;8.83;;;6.07;;
7759;SDS011;3924;48.830;9.262;2022-10-31T15:37:58;11.70;;;6.63;;
7759;SDS011;3924;48.830;9.262;2022-10-31T15:40:26;17.77;;;8.83;;
7759;SDS011;3924;48.830;9.262;2022-10-31T15:42:55;19.10;;;9.00;;
7759;SDS011;3924;48.830;9.262;2022-10-31T15:45:24;17.97;;;7.40;;
7759;SDS011;3924;48.830;9.262;2022-10-31T15:48:26;10.77;;;6.33;;
7759;SDS011;3924;48.830;9.262;2022-10-31T15:50:55;15.40;;;7.13;;
7759;SDS011;3924;48.830;9.262;2022-10-31T15:53:33;12.63;;;7.50;;
7759;SDS011;3924;48.830;9.262;2022-10-31T15:56:08;16.27;;;7.00;;
7759;SDS011;3924;48.830;9.262;2022-10-31T15:58:42;17.90;;;6.67;;
7759;SDS011;3924;48.830;9.262;2022-10-31T16:06:36;11.27;;;7.30;;
7759;SDS011;3924;48.830;9.262;2022-10-31T16:09:04;12.80;;;6.77;;
7759;SDS011;3924;48.830;9.262;2022-10-31T16:11:49;13.27;;;6.60;;
7759;SDS011;3924;48.830;9.262;2022-10-31T16:14:17;14.17;;;7.13;;
7759;SDS011;3924;48.830;9.262;2022-10-31T16:17:00;11.23;;;7.50;;
7759;SDS011;3924;48.830;9.262;2022-10-31T16:19:32;13.90;;;6.60;;
7759;SDS011;3924;48.830;9.262;2022-10-31T16:22:23;10.43;;;6.30;;
7759;SDS011;3924;48.830;9.262;2022-10-31T16:27:47;13.63;;;8.47;;
7759;SDS011;3924;48.830;9.262;2022-10-31T16:30:27;14.10;;;8.33;;
7759;SDS011;3924;48.830;9.262;2022-10-31T16:32:59;16.20;;;8.17;;
7759;SDS011;3924;48.830;9.262;2022-10-31T16:35:31;13.13;;;8.23;;
7759;SDS011;3924;48.830;9.262;2022-10-31T16:37:58;14.13;;;7.90;;
7759;SDS011;3924;48.830;9.262;2022-10-31T16:40:24;14.27;;;7.07;;
7759;SDS011;3924;48.830;9.262;2022-10-31T16:42:51;15.73;;;7.87;;
7759;SDS011;3924;48.830;9.262;2022-10-31T16:45:19;12.90;;;6.97;;
7759;SDS011;3924;48.830;9.262;2022-10-31T16:47:47;14.13;;;6.97;;
7759;SDS011;3924;48.830;9.262;2022-10-31T16:50:18;15.97;;;6.80;;
7759;SDS011;3924;48.830;9.262;2022-10-31T16:52:47;18.17;;;6.63;;
7759;SDS011;3924;48.830;9.262;2022-10-31T16:55:33;11.23;;;6.30;;
7759;SDS011;3924;48.830;9.262;2022-10-31T16:58:07;9.37;;;6.00;;
7759;SDS011;3924;48.830;9.262;2022-10-31T17:00:41;11.93;;;6.67;;
7759;SDS011;3924;48.830;9.262;2022-10-31T17:03:08;15.00;;;6.33;;
7759;SDS011;3924;48.830;9.262;2022-10-31T17:05:36;19.13;;;7.00;;
7759;SDS011;3924;48.830;9.262;2022-10-31T17:08:03;15.63;;;6.80;;
7759;SDS011;3924;48.830;9.262;2022-10-31T17:10:30;9.30;;;6.07;;
7759;SDS011;3924;48.830;9.262;2022-10-31T17:12:56;12.63;;;6.50;;
7759;SDS011;3924;48.830;9.262;2022-10-31T17:15:25;11.27;;;6.47;;
7759;SDS011;3924;48.830;9.262;2022-10-31T17:17:53;10.27;;;6.30;;
7759;SDS011;3924;48.830;9.262;2022-10-31T17:20:23;12.23;;;6.20;;
7759;SDS011;3924;48.830;9.262;2022-10-31T17:22:52;13.03;;;6.40;;
7759;SDS011;3924;48.830;9.262;2022-10-31T17:25:24;11.83;;;7.13;;
7759;SDS011;3924;48.830;9.262;2022-10-31T17:27:52;17.97;;;6.37;;
7759;SDS011;3924;48.830;9.262;2022-10-31T17:30:19;13.57;;;6.53;;
7759;SDS011;3924;48.830;9.262;2022-10-31T17:32:47;16.53;;;7.73;;
7759;SDS011;3924;48.830;9.262;2022-10-31T17:35:14;11.97;;;6.60;;
7759;SDS011;3924;48.830;9.262;2022-10-31T17:37:42;18.33;;;7.30;;
7759;SDS011;3924;48.830;9.262;2022-10-31T17:40:09;12.83;;;7.60;;
7759;SDS011;3924;48.830;9.262;2022-10-31T17:42:58;12.87;;;7.30;;
7759;SDS011;3924;48.830;9.262;2022-10-31T17:45:25;15.30;;;7.50;;
7759;SDS011;3924;48.830;9.262;2022-10-31T17:47:52;14.87;;;9.60;;
7759;SDS011;3924;48.830;9.262;2022-10-31T17:50:20;12.73;;;8.23;;
7759;SDS011;3924;48.830;9.262;2022-10-31T17:52:49;15.87;;;8.90;;
7759;SDS011;3924;48.830;9.262;2022-10-31T17:55:16;17.53;;;11.23;;